EFW19WW EGPH-EGKK
Flight info
| Callsign | EFW19WW |
|---|---|
| Flight time | 1h 5m |
| Altitude | 33000 |
| Route | TLA N864 DCS DCT ADZOP DCT EGTOC DCT KEPAD L151 DISIT |
| Aircraft | A320/M-SDE3FGHIRWY/LB1 |
Departure
| Time | 2026-04-25 20:09 |
|---|---|
| Airport | Edinburgh Airport (EGPH) |
Arrival
| Time | 2026-04-25 21:15 |
|---|---|
| Airport | London Gatwick Airport (EGKK) |
| Time | Latitude | Longitude | Altitude | Speed | Heading |
|---|---|---|---|---|---|
| 2026-04-25 19:32 | 55.94883 | -3.36550 | 103 ft | 0 kts | 149° |
| 2026-04-25 19:32 | 55.94752 | -3.36616 | 103 ft | 0 kts | 90° |
| 2026-04-25 19:51 | 55.94752 | -3.36618 | 104 ft | 1 kts | 89° |
| 2026-04-25 19:52 | 55.94752 | -3.36645 | 104 ft | 2 kts | 89° |
| 2026-04-25 19:52 | 55.94752 | -3.36671 | 104 ft | 2 kts | 89° |
| 2026-04-25 19:52 | 55.94752 | -3.36696 | 104 ft | 1 kts | 89° |
| 2026-04-25 19:52 | 55.94751 | -3.36714 | 104 ft | 2 kts | 65° |
| 2026-04-25 19:53 | 55.94741 | -3.36734 | 104 ft | 2 kts | 25° |
| 2026-04-25 19:53 | 55.94732 | -3.36739 | 104 ft | 1 kts | 2° |
| 2026-04-25 19:53 | 55.94725 | -3.36738 | 104 ft | 0 kts | 0° |
| 2026-04-25 20:00 | 55.94726 | -3.36738 | 104 ft | 0 kts | 0° |
| 2026-04-25 20:01 | 55.94769 | -3.36765 | 104 ft | 5 kts | 338° |
| 2026-04-25 20:01 | 55.94823 | -3.36778 | 104 ft | 9 kts | 357° |
| 2026-04-25 20:01 | 55.94897 | -3.36802 | 104 ft | 12 kts | 327° |
| 2026-04-25 20:02 | 55.94914 | -3.36937 | 104 ft | 14 kts | 237° |
| 2026-04-25 20:02 | 55.94857 | -3.37100 | 104 ft | 16 kts | 239° |
| 2026-04-25 20:02 | 55.94794 | -3.37285 | 104 ft | 18 kts | 239° |
| 2026-04-25 20:02 | 55.94725 | -3.37490 | 105 ft | 20 kts | 239° |
| 2026-04-25 20:03 | 55.94650 | -3.37712 | 105 ft | 21 kts | 238° |
| 2026-04-25 20:03 | 55.94574 | -3.37934 | 106 ft | 20 kts | 240° |
| 2026-04-25 20:03 | 55.94501 | -3.38152 | 108 ft | 19 kts | 239° |
| 2026-04-25 20:03 | 55.94431 | -3.38356 | 110 ft | 19 kts | 238° |
| 2026-04-25 20:04 | 55.94365 | -3.38553 | 112 ft | 18 kts | 239° |
| 2026-04-25 20:04 | 55.94305 | -3.38729 | 113 ft | 12 kts | 239° |
| 2026-04-25 20:04 | 55.94282 | -3.38849 | 114 ft | 10 kts | 291° |
| 2026-04-25 20:04 | 55.94318 | -3.38899 | 114 ft | 0 kts | 329° |
| 2026-04-25 20:07 | 55.94324 | -3.38906 | 114 ft | 2 kts | 330° |
| 2026-04-25 20:08 | 55.94348 | -3.38930 | 114 ft | 5 kts | 330° |
| 2026-04-25 20:08 | 55.94393 | -3.38976 | 114 ft | 7 kts | 332° |
| 2026-04-25 20:08 | 55.94425 | -3.38941 | 114 ft | 0 kts | 58° |
| 2026-04-25 20:08 | 55.94425 | -3.38940 | 114 ft | 1 kts | 58° |
| 2026-04-25 20:09 | 55.94548 | -3.38574 | 111 ft | 71 kts | 59° |
| 2026-04-25 20:09 | 55.94922 | -3.37476 | 105 ft | 134 kts | 59° |
| 2026-04-25 20:09 | 55.95472 | -3.35878 | 451 ft | 155 kts | 58° |
| 2026-04-25 20:09 | 55.96067 | -3.34322 | 1140 ft | 155 kts | 49° |
| 2026-04-25 20:10 | 55.96872 | -3.33065 | 1825 ft | 155 kts | 37° |
| 2026-04-25 20:10 | 55.97732 | -3.31857 | 2261 ft | 166 kts | 44° |
| 2026-04-25 20:10 | 55.98611 | -3.30338 | 2657 ft | 182 kts | 45° |
| 2026-04-25 20:10 | 55.99587 | -3.28747 | 3037 ft | 202 kts | 35° |
| 2026-04-25 20:11 | 56.00989 | -3.28031 | 3336 ft | 228 kts | 357° |
| 2026-04-25 20:11 | 56.02510 | -3.29058 | 3818 ft | 247 kts | 321° |
| 2026-04-25 20:11 | 56.03488 | -3.31713 | 4268 ft | 267 kts | 285° |
| 2026-04-25 20:11 | 56.03464 | -3.35016 | 4926 ft | 274 kts | 256° |
| 2026-04-25 20:12 | 56.02890 | -3.38202 | 5730 ft | 275 kts | 251° |
| 2026-04-25 20:12 | 56.02260 | -3.41450 | 6496 ft | 277 kts | 252° |
| 2026-04-25 20:12 | 56.01689 | -3.44709 | 7271 ft | 281 kts | 254° |
| 2026-04-25 20:12 | 56.01507 | -3.45845 | 7548 ft | 282 kts | 255° |
| 2026-04-25 20:13 | 56.00661 | -3.51503 | 8891 ft | 286 kts | 257° |
| 2026-04-25 20:13 | 56.00174 | -3.54904 | 9660 ft | 287 kts | 257° |
| 2026-04-25 20:13 | 55.99681 | -3.58379 | 10413 ft | 290 kts | 258° |
| 2026-04-25 20:13 | 55.99190 | -3.61846 | 10990 ft | 299 kts | 258° |
| 2026-04-25 20:14 | 55.98664 | -3.65570 | 11346 ft | 317 kts | 257° |
| 2026-04-25 20:14 | 55.98114 | -3.69435 | 11657 ft | 333 kts | 257° |
| 2026-04-25 20:14 | 55.97532 | -3.73495 | 12110 ft | 344 kts | 257° |
| 2026-04-25 20:14 | 55.96931 | -3.77651 | 12786 ft | 347 kts | 256° |
| 2026-04-25 20:15 | 55.96332 | -3.81785 | 13435 ft | 350 kts | 256° |
| 2026-04-25 20:15 | 55.95719 | -3.85996 | 14052 ft | 354 kts | 256° |
| 2026-04-25 20:15 | 55.95099 | -3.90260 | 14656 ft | 357 kts | 256° |
| 2026-04-25 20:15 | 55.94456 | -3.94549 | 15261 ft | 360 kts | 253° |
| 2026-04-25 20:16 | 55.93278 | -3.98454 | 15801 ft | 366 kts | 230° |
| 2026-04-25 20:16 | 55.91233 | -4.01157 | 16370 ft | 373 kts | 206° |
| 2026-04-25 20:16 | 55.88712 | -4.02318 | 16950 ft | 379 kts | 186° |
| 2026-04-25 20:16 | 55.86078 | -4.01924 | 17512 ft | 384 kts | 170° |
| 2026-04-25 20:17 | 55.83457 | -4.00963 | 18074 ft | 386 kts | 170° |
| 2026-04-25 20:17 | 55.80855 | -4.00039 | 18602 ft | 389 kts | 171° |
| 2026-04-25 20:17 | 55.78170 | -3.99120 | 19110 ft | 391 kts | 171° |
| 2026-04-25 20:17 | 55.75486 | -3.98228 | 19560 ft | 395 kts | 171° |
| 2026-04-25 20:18 | 55.72783 | -3.97345 | 20036 ft | 397 kts | 171° |
| 2026-04-25 20:18 | 55.70080 | -3.96471 | 20516 ft | 399 kts | 171° |
| 2026-04-25 20:18 | 55.67366 | -3.95599 | 20978 ft | 401 kts | 171° |
| 2026-04-25 20:18 | 55.64608 | -3.94717 | 21424 ft | 403 kts | 171° |
| 2026-04-25 20:19 | 55.61849 | -3.93838 | 21859 ft | 405 kts | 171° |
| 2026-04-25 20:19 | 55.59082 | -3.92957 | 22286 ft | 407 kts | 171° |
| 2026-04-25 20:19 | 55.56317 | -3.92078 | 22703 ft | 409 kts | 171° |
| 2026-04-25 20:19 | 55.53505 | -3.91185 | 23112 ft | 411 kts | 171° |
| 2026-04-25 20:20 | 55.50695 | -3.90295 | 23508 ft | 413 kts | 171° |
| 2026-04-25 20:20 | 55.47875 | -3.89403 | 23896 ft | 415 kts | 171° |
| 2026-04-25 20:20 | 55.45051 | -3.88510 | 24275 ft | 417 kts | 171° |
| 2026-04-25 20:20 | 55.42183 | -3.87604 | 24648 ft | 418 kts | 171° |
| 2026-04-25 20:21 | 55.39319 | -3.86701 | 25021 ft | 420 kts | 171° |
| 2026-04-25 20:21 | 55.36453 | -3.85799 | 25385 ft | 422 kts | 171° |
| 2026-04-25 20:21 | 55.33543 | -3.84883 | 25751 ft | 424 kts | 171° |
| 2026-04-25 20:21 | 55.30661 | -3.83979 | 26102 ft | 426 kts | 171° |
| 2026-04-25 20:22 | 55.27741 | -3.83064 | 26446 ft | 429 kts | 171° |
| 2026-04-25 20:22 | 55.26762 | -3.82758 | 26560 ft | 429 kts | 171° |
| 2026-04-25 20:22 | 55.21860 | -3.80916 | 27104 ft | 434 kts | 166° |
| 2026-04-25 20:22 | 55.18984 | -3.79446 | 27302 ft | 436 kts | 163° |
| 2026-04-25 20:23 | 55.16108 | -3.77753 | 27355 ft | 435 kts | 162° |
| 2026-04-25 20:23 | 55.13261 | -3.76083 | 27391 ft | 435 kts | 162° |
| 2026-04-25 20:23 | 55.10381 | -3.74399 | 27380 ft | 434 kts | 162° |
| 2026-04-25 20:23 | 55.07522 | -3.72731 | 27346 ft | 434 kts | 162° |
| 2026-04-25 20:24 | 55.04679 | -3.71074 | 27322 ft | 434 kts | 162° |
| 2026-04-25 20:24 | 55.01825 | -3.69414 | 27304 ft | 434 kts | 162° |
| 2026-04-25 20:24 | 54.98954 | -3.67745 | 27271 ft | 435 kts | 162° |
| 2026-04-25 20:24 | 54.96107 | -3.66092 | 27241 ft | 435 kts | 162° |
| 2026-04-25 20:25 | 54.93235 | -3.64427 | 27225 ft | 436 kts | 162° |
| 2026-04-25 20:25 | 54.90373 | -3.62770 | 27215 ft | 436 kts | 162° |
| 2026-04-25 20:25 | 54.87468 | -3.61091 | 27217 ft | 437 kts | 162° |
| 2026-04-25 20:25 | 54.84611 | -3.59443 | 27224 ft | 437 kts | 162° |
| 2026-04-25 20:26 | 54.81714 | -3.57774 | 27228 ft | 437 kts | 162° |
| 2026-04-25 20:26 | 54.78815 | -3.56108 | 27231 ft | 438 kts | 162° |
| 2026-04-25 20:26 | 54.75940 | -3.54456 | 27234 ft | 438 kts | 162° |
| 2026-04-25 20:26 | 54.73069 | -3.52809 | 27237 ft | 438 kts | 162° |
| 2026-04-25 20:27 | 54.70165 | -3.51146 | 27238 ft | 438 kts | 162° |
| 2026-04-25 20:27 | 54.67274 | -3.49493 | 27238 ft | 439 kts | 162° |
| 2026-04-25 20:27 | 54.64374 | -3.47837 | 27236 ft | 439 kts | 162° |
| 2026-04-25 20:27 | 54.61487 | -3.46191 | 27233 ft | 439 kts | 162° |
| 2026-04-25 20:28 | 54.58575 | -3.44534 | 27230 ft | 439 kts | 162° |
| 2026-04-25 20:28 | 54.55701 | -3.42901 | 27227 ft | 440 kts | 162° |
| 2026-04-25 20:28 | 54.52804 | -3.41257 | 27224 ft | 440 kts | 162° |
| 2026-04-25 20:28 | 54.49877 | -3.39598 | 27221 ft | 440 kts | 162° |
| 2026-04-25 20:29 | 54.46994 | -3.37966 | 27219 ft | 440 kts | 162° |
| 2026-04-25 20:29 | 54.44090 | -3.36325 | 27219 ft | 440 kts | 162° |
| 2026-04-25 20:29 | 54.41174 | -3.34680 | 27219 ft | 440 kts | 163° |
| 2026-04-25 20:29 | 54.38259 | -3.33038 | 27220 ft | 440 kts | 163° |
| 2026-04-25 20:30 | 54.35431 | -3.31448 | 27221 ft | 440 kts | 163° |
| 2026-04-25 20:30 | 54.32603 | -3.29860 | 27221 ft | 440 kts | 163° |
| 2026-04-25 20:30 | 54.29613 | -3.28183 | 27222 ft | 440 kts | 163° |
| 2026-04-25 20:30 | 54.26707 | -3.26556 | 27224 ft | 441 kts | 163° |
| 2026-04-25 20:31 | 54.23814 | -3.24938 | 27226 ft | 441 kts | 163° |
| 2026-04-25 20:31 | 54.20916 | -3.23320 | 27227 ft | 441 kts | 163° |
| 2026-04-25 20:31 | 54.17960 | -3.21672 | 27228 ft | 441 kts | 163° |
| 2026-04-25 20:31 | 54.15073 | -3.20065 | 27228 ft | 441 kts | 163° |
| 2026-04-25 20:32 | 54.12153 | -3.18442 | 27227 ft | 441 kts | 163° |
| 2026-04-25 20:32 | 54.09276 | -3.16845 | 27225 ft | 441 kts | 163° |
| 2026-04-25 20:32 | 54.06338 | -3.15217 | 27224 ft | 441 kts | 163° |
| 2026-04-25 20:32 | 54.03455 | -3.13621 | 27222 ft | 440 kts | 163° |
| 2026-04-25 20:33 | 54.00541 | -3.12012 | 27220 ft | 440 kts | 163° |
| 2026-04-25 20:33 | 53.97609 | -3.10392 | 27219 ft | 440 kts | 163° |
| 2026-04-25 20:33 | 53.94711 | -3.08793 | 27217 ft | 440 kts | 163° |
| 2026-04-25 20:33 | 53.92765 | -3.07721 | 27216 ft | 441 kts | 163° |
| 2026-04-25 20:34 | 53.88897 | -3.05592 | 27215 ft | 441 kts | 163° |
| 2026-04-25 20:34 | 53.85972 | -3.03986 | 27214 ft | 442 kts | 163° |
| 2026-04-25 20:34 | 53.83144 | -3.02436 | 27213 ft | 442 kts | 163° |
| 2026-04-25 20:34 | 53.80227 | -3.00842 | 27212 ft | 442 kts | 163° |
| 2026-04-25 20:35 | 53.77556 | -2.99384 | 27212 ft | 442 kts | 163° |
| 2026-04-25 20:35 | 53.74646 | -2.97797 | 27211 ft | 442 kts | 163° |
| 2026-04-25 20:35 | 53.71750 | -2.96220 | 27211 ft | 442 kts | 163° |
| 2026-04-25 20:35 | 53.68814 | -2.94624 | 27211 ft | 442 kts | 163° |
| 2026-04-25 20:36 | 53.65874 | -2.93027 | 27211 ft | 442 kts | 163° |
| 2026-04-25 20:36 | 53.62965 | -2.91450 | 27211 ft | 442 kts | 163° |
| 2026-04-25 20:36 | 53.60030 | -2.89861 | 27211 ft | 442 kts | 163° |
| 2026-04-25 20:36 | 53.57114 | -2.88284 | 27211 ft | 442 kts | 163° |
| 2026-04-25 20:37 | 53.54172 | -2.86696 | 27212 ft | 442 kts | 163° |
| 2026-04-25 20:37 | 53.51257 | -2.85125 | 27213 ft | 441 kts | 163° |
| 2026-04-25 20:37 | 53.48364 | -2.83567 | 27214 ft | 441 kts | 163° |
| 2026-04-25 20:37 | 53.45439 | -2.81995 | 27217 ft | 441 kts | 163° |
| 2026-04-25 20:38 | 53.42493 | -2.80414 | 27220 ft | 441 kts | 163° |
| 2026-04-25 20:38 | 53.39566 | -2.78845 | 27224 ft | 441 kts | 163° |
| 2026-04-25 20:38 | 53.36644 | -2.77281 | 27228 ft | 441 kts | 163° |
| 2026-04-25 20:38 | 53.33730 | -2.75724 | 27231 ft | 441 kts | 163° |
| 2026-04-25 20:39 | 53.30827 | -2.74175 | 27234 ft | 442 kts | 163° |
| 2026-04-25 20:39 | 53.27896 | -2.72612 | 27236 ft | 441 kts | 163° |
| 2026-04-25 20:39 | 53.24981 | -2.71062 | 27237 ft | 441 kts | 163° |
| 2026-04-25 20:39 | 53.23020 | -2.70020 | 27236 ft | 441 kts | 163° |
| 2026-04-25 20:40 | 53.19132 | -2.67957 | 27235 ft | 441 kts | 163° |
| 2026-04-25 20:40 | 53.16195 | -2.66401 | 27233 ft | 441 kts | 163° |
| 2026-04-25 20:40 | 53.13284 | -2.64861 | 27230 ft | 441 kts | 163° |
| 2026-04-25 20:40 | 53.10358 | -2.63314 | 27228 ft | 441 kts | 163° |
| 2026-04-25 20:41 | 53.07446 | -2.61776 | 27228 ft | 442 kts | 163° |
| 2026-04-25 20:41 | 53.04523 | -2.60234 | 27229 ft | 441 kts | 163° |
| 2026-04-25 20:41 | 53.01597 | -2.58693 | 27230 ft | 441 kts | 163° |
| 2026-04-25 20:41 | 52.98646 | -2.57142 | 27230 ft | 442 kts | 163° |
| 2026-04-25 20:42 | 52.95719 | -2.55604 | 27229 ft | 442 kts | 163° |
| 2026-04-25 20:42 | 52.92825 | -2.54085 | 27228 ft | 442 kts | 163° |
| 2026-04-25 20:42 | 52.89983 | -2.52597 | 27227 ft | 442 kts | 163° |
| 2026-04-25 20:42 | 52.86940 | -2.51008 | 27224 ft | 442 kts | 163° |
| 2026-04-25 20:43 | 52.84004 | -2.49428 | 27220 ft | 442 kts | 161° |
| 2026-04-25 20:43 | 52.81277 | -2.47573 | 27218 ft | 443 kts | 156° |
| 2026-04-25 20:43 | 52.78563 | -2.45213 | 27215 ft | 443 kts | 150° |
| 2026-04-25 20:43 | 52.75932 | -2.42428 | 27214 ft | 444 kts | 147° |
| 2026-04-25 20:44 | 52.73583 | -2.39814 | 27212 ft | 444 kts | 146° |
| 2026-04-25 20:44 | 52.71033 | -2.36962 | 27211 ft | 445 kts | 147° |
| 2026-04-25 20:44 | 52.68449 | -2.34093 | 27211 ft | 445 kts | 148° |
| 2026-04-25 20:44 | 52.65861 | -2.31239 | 27212 ft | 445 kts | 148° |
| 2026-04-25 20:45 | 52.63433 | -2.28575 | 27212 ft | 445 kts | 148° |
| 2026-04-25 20:45 | 52.60835 | -2.25732 | 27213 ft | 445 kts | 148° |
| 2026-04-25 20:45 | 52.58499 | -2.23181 | 27216 ft | 445 kts | 148° |
| 2026-04-25 20:45 | 52.55953 | -2.20402 | 27218 ft | 446 kts | 148° |
| 2026-04-25 20:46 | 52.53355 | -2.17570 | 27221 ft | 446 kts | 148° |
| 2026-04-25 20:46 | 52.51074 | -2.15085 | 27223 ft | 447 kts | 148° |
| 2026-04-25 20:46 | 52.48436 | -2.12214 | 27157 ft | 448 kts | 148° |
| 2026-04-25 20:46 | 52.45856 | -2.09408 | 26964 ft | 446 kts | 148° |
| 2026-04-25 20:47 | 52.43283 | -2.06613 | 26771 ft | 444 kts | 148° |
| 2026-04-25 20:47 | 52.40712 | -2.03826 | 26574 ft | 442 kts | 148° |
| 2026-04-25 20:47 | 52.38143 | -2.01042 | 26240 ft | 440 kts | 148° |
| 2026-04-25 20:47 | 52.35606 | -1.98299 | 25703 ft | 439 kts | 148° |
| 2026-04-25 20:48 | 52.33087 | -1.95582 | 25062 ft | 439 kts | 148° |
| 2026-04-25 20:48 | 52.30532 | -1.92829 | 24527 ft | 434 kts | 148° |
| 2026-04-25 20:48 | 52.28048 | -1.90157 | 23988 ft | 430 kts | 148° |
| 2026-04-25 20:48 | 52.25554 | -1.87478 | 23416 ft | 425 kts | 148° |
| 2026-04-25 20:49 | 52.23110 | -1.84856 | 22877 ft | 420 kts | 148° |
| 2026-04-25 20:49 | 52.20695 | -1.82268 | 22354 ft | 415 kts | 148° |
| 2026-04-25 20:49 | 52.18285 | -1.79687 | 21852 ft | 410 kts | 148° |
| 2026-04-25 20:49 | 52.15924 | -1.77162 | 21372 ft | 406 kts | 148° |
| 2026-04-25 20:50 | 52.13589 | -1.74669 | 20882 ft | 402 kts | 148° |
| 2026-04-25 20:50 | 52.11256 | -1.72182 | 20410 ft | 402 kts | 148° |
| 2026-04-25 20:50 | 52.08911 | -1.69690 | 20214 ft | 403 kts | 148° |
| 2026-04-25 20:50 | 52.06633 | -1.67271 | 20171 ft | 384 kts | 148° |
| 2026-04-25 20:51 | 52.04452 | -1.64964 | 20153 ft | 365 kts | 150° |
| 2026-04-25 20:51 | 52.02175 | -1.63351 | 20147 ft | 348 kts | 166° |
| 2026-04-25 20:51 | 51.99857 | -1.62421 | 20177 ft | 346 kts | 169° |
| 2026-04-25 20:51 | 51.97497 | -1.61605 | 20212 ft | 346 kts | 170° |
| 2026-04-25 20:52 | 51.95123 | -1.60811 | 20229 ft | 346 kts | 170° |
| 2026-04-25 20:52 | 51.93547 | -1.60286 | 20235 ft | 346 kts | 170° |
| 2026-04-25 20:52 | 51.90405 | -1.59244 | 20240 ft | 346 kts | 170° |
| 2026-04-25 20:52 | 51.88195 | -1.58512 | 20240 ft | 346 kts | 170° |
| 2026-04-25 20:53 | 51.85907 | -1.57753 | 20067 ft | 343 kts | 170° |
| 2026-04-25 20:53 | 51.83566 | -1.56979 | 19436 ft | 352 kts | 170° |
| 2026-04-25 20:53 | 51.81141 | -1.56182 | 18667 ft | 363 kts | 170° |
| 2026-04-25 20:53 | 51.78644 | -1.55368 | 17817 ft | 373 kts | 170° |
| 2026-04-25 20:54 | 51.76067 | -1.54534 | 16984 ft | 381 kts | 170° |
| 2026-04-25 20:54 | 51.73447 | -1.53690 | 16401 ft | 380 kts | 169° |
| 2026-04-25 20:54 | 51.70960 | -1.52307 | 15868 ft | 380 kts | 152° |
| 2026-04-25 20:54 | 51.68747 | -1.50082 | 15397 ft | 377 kts | 146° |
| 2026-04-25 20:55 | 51.66600 | -1.47643 | 15212 ft | 376 kts | 142° |
| 2026-04-25 20:55 | 51.64614 | -1.44958 | 15183 ft | 378 kts | 139° |
| 2026-04-25 20:55 | 51.62651 | -1.42128 | 15183 ft | 379 kts | 138° |
| 2026-04-25 20:55 | 51.60694 | -1.39297 | 15204 ft | 379 kts | 138° |
| 2026-04-25 20:56 | 51.58719 | -1.36467 | 15214 ft | 379 kts | 138° |
| 2026-04-25 20:56 | 51.56794 | -1.33730 | 15218 ft | 379 kts | 139° |
| 2026-04-25 20:56 | 51.54798 | -1.30909 | 15223 ft | 379 kts | 139° |
| 2026-04-25 20:56 | 51.52992 | -1.28366 | 15231 ft | 379 kts | 140° |
| 2026-04-25 20:57 | 51.51000 | -1.25569 | 15235 ft | 379 kts | 140° |
| 2026-04-25 20:57 | 51.49056 | -1.22846 | 15238 ft | 379 kts | 140° |
| 2026-04-25 20:57 | 51.47195 | -1.20244 | 15239 ft | 379 kts | 140° |
| 2026-04-25 20:57 | 51.45185 | -1.17436 | 15239 ft | 379 kts | 140° |
| 2026-04-25 20:58 | 51.43193 | -1.14657 | 15239 ft | 379 kts | 140° |
| 2026-04-25 20:58 | 51.41208 | -1.11891 | 15239 ft | 379 kts | 140° |
| 2026-04-25 20:58 | 51.39232 | -1.09141 | 15239 ft | 379 kts | 140° |
| 2026-04-25 20:58 | 51.37227 | -1.06356 | 15184 ft | 379 kts | 140° |
| 2026-04-25 20:59 | 51.35254 | -1.03617 | 15085 ft | 378 kts | 140° |
| 2026-04-25 20:59 | 51.33259 | -1.00851 | 14966 ft | 377 kts | 140° |
| 2026-04-25 20:59 | 51.31269 | -0.98093 | 14847 ft | 377 kts | 140° |
| 2026-04-25 20:59 | 51.29287 | -0.95349 | 14723 ft | 376 kts | 140° |
| 2026-04-25 21:00 | 51.27320 | -0.92629 | 14599 ft | 375 kts | 140° |
| 2026-04-25 21:00 | 51.26654 | -0.91709 | 14558 ft | 375 kts | 140° |
| 2026-04-25 21:00 | 51.21428 | -0.84506 | 14228 ft | 373 kts | 140° |
| 2026-04-25 21:01 | 51.19466 | -0.81808 | 14103 ft | 372 kts | 140° |
| 2026-04-25 21:01 | 51.17489 | -0.79092 | 13978 ft | 371 kts | 139° |
| 2026-04-25 21:01 | 51.15540 | -0.76415 | 13854 ft | 371 kts | 139° |
| 2026-04-25 21:01 | 51.13599 | -0.73755 | 13731 ft | 370 kts | 139° |
| 2026-04-25 21:02 | 51.11655 | -0.71093 | 13606 ft | 369 kts | 139° |
| 2026-04-25 21:02 | 51.09698 | -0.68419 | 13480 ft | 369 kts | 139° |
| 2026-04-25 21:02 | 51.07758 | -0.65767 | 13359 ft | 366 kts | 139° |
| 2026-04-25 21:02 | 51.05950 | -0.63036 | 13246 ft | 353 kts | 130° |
| 2026-04-25 21:03 | 51.04550 | -0.59952 | 13140 ft | 339 kts | 119° |
| 2026-04-25 21:03 | 51.03480 | -0.56697 | 13036 ft | 326 kts | 115° |
| 2026-04-25 21:03 | 51.02515 | -0.53520 | 12926 ft | 315 kts | 115° |
| 2026-04-25 21:03 | 51.01586 | -0.50465 | 12799 ft | 304 kts | 115° |
| 2026-04-25 21:04 | 51.00674 | -0.47516 | 12670 ft | 293 kts | 115° |
| 2026-04-25 21:04 | 50.99777 | -0.44643 | 12538 ft | 283 kts | 116° |
| 2026-04-25 21:04 | 50.98915 | -0.41900 | 12408 ft | 273 kts | 116° |
| 2026-04-25 21:04 | 50.98080 | -0.39243 | 12179 ft | 269 kts | 116° |
| 2026-04-25 21:05 | 50.97251 | -0.36613 | 11862 ft | 266 kts | 116° |
| 2026-04-25 21:05 | 50.96489 | -0.34196 | 11424 ft | 266 kts | 116° |
| 2026-04-25 21:05 | 50.95668 | -0.31600 | 11027 ft | 264 kts | 116° |
| 2026-04-25 21:05 | 50.94940 | -0.29058 | 10648 ft | 261 kts | 104° |
| 2026-04-25 21:06 | 50.94862 | -0.26273 | 10263 ft | 257 kts | 75° |
| 2026-04-25 21:06 | 50.95645 | -0.23807 | 9892 ft | 254 kts | 45° |
| 2026-04-25 21:06 | 50.97060 | -0.22308 | 9538 ft | 250 kts | 16° |
| 2026-04-25 21:06 | 50.98181 | -0.22027 | 9303 ft | 248 kts | 356° |
| 2026-04-25 21:07 | 51.00261 | -0.23309 | 8814 ft | 246 kts | 316° |
| 2026-04-25 21:07 | 51.01183 | -0.25552 | 8439 ft | 247 kts | 287° |
| 2026-04-25 21:07 | 51.01522 | -0.28152 | 8132 ft | 246 kts | 278° |
| 2026-04-25 21:07 | 51.01725 | -0.30802 | 7812 ft | 246 kts | 277° |
| 2026-04-25 21:08 | 51.01902 | -0.33470 | 7500 ft | 245 kts | 276° |
| 2026-04-25 21:08 | 51.02072 | -0.36128 | 7205 ft | 244 kts | 276° |
| 2026-04-25 21:08 | 51.02243 | -0.38825 | 6884 ft | 243 kts | 276° |
| 2026-04-25 21:08 | 51.02411 | -0.41476 | 6579 ft | 242 kts | 276° |
| 2026-04-25 21:09 | 51.02744 | -0.46731 | 5999 ft | 240 kts | 276° |
| 2026-04-25 21:09 | 51.03086 | -0.49287 | 5734 ft | 239 kts | 297° |
| 2026-04-25 21:09 | 51.04127 | -0.51244 | 5452 ft | 236 kts | 328° |
| 2026-04-25 21:10 | 51.05616 | -0.52277 | 5141 ft | 235 kts | 343° |
| 2026-04-25 21:10 | 51.07190 | -0.52950 | 4826 ft | 234 kts | 353° |
| 2026-04-25 21:10 | 51.08764 | -0.52659 | 4488 ft | 232 kts | 26° |
| 2026-04-25 21:10 | 51.09975 | -0.51122 | 4136 ft | 229 kts | 56° |
| 2026-04-25 21:11 | 51.10652 | -0.48863 | 3820 ft | 227 kts | 73° |
| 2026-04-25 21:11 | 51.11062 | -0.46496 | 3525 ft | 225 kts | 77° |
| 2026-04-25 21:11 | 51.11409 | -0.44073 | 3189 ft | 223 kts | 78° |
| 2026-04-25 21:11 | 51.11732 | -0.41670 | 2840 ft | 223 kts | 78° |
| 2026-04-25 21:12 | 51.12048 | -0.39292 | 2536 ft | 218 kts | 78° |
| 2026-04-25 21:12 | 51.12360 | -0.36993 | 2247 ft | 210 kts | 78° |
| 2026-04-25 21:12 | 51.12656 | -0.34812 | 1963 ft | 192 kts | 78° |
| 2026-04-25 21:12 | 51.12840 | -0.33458 | 1797 ft | 183 kts | 78° |
| 2026-04-25 21:13 | 51.13177 | -0.30988 | 1562 ft | 163 kts | 78° |
| 2026-04-25 21:13 | 51.13410 | -0.29273 | 1301 ft | 156 kts | 78° |
| 2026-04-25 21:13 | 51.13630 | -0.27592 | 1125 ft | 156 kts | 78° |
| 2026-04-25 21:13 | 51.13855 | -0.25887 | 900 ft | 156 kts | 77° |
| 2026-04-25 21:14 | 51.14096 | -0.24263 | 666 ft | 148 kts | 77° |
| 2026-04-25 21:14 | 51.14298 | -0.22746 | 463 ft | 140 kts | 78° |
| 2026-04-25 21:14 | 51.14508 | -0.21232 | 306 ft | 140 kts | 77° |
| 2026-04-25 21:14 | 51.14704 | -0.19799 | 202 ft | 132 kts | 78° |
| 2026-04-25 21:15 | 51.14874 | -0.18590 | 200 ft | 84 kts | 79° |
| 2026-04-25 21:15 | 51.14953 | -0.18055 | 201 ft | 29 kts | 73° |
| 2026-04-25 21:15 | 51.15048 | -0.17814 | 201 ft | 17 kts | 54° |
| 2026-04-25 21:15 | 51.15081 | -0.17759 | 200 ft | 5 kts | 24° |
| 2026-04-25 21:16 | 51.15120 | -0.17761 | 200 ft | 6 kts | 348° |
| 2026-04-25 21:16 | 51.15125 | -0.17763 | 200 ft | 0 kts | 348° |
| 2026-04-25 21:17 | 51.15126 | -0.17763 | 200 ft | 1 kts | 348° |
| 2026-04-25 21:17 | 51.15148 | -0.17768 | 200 ft | 5 kts | 357° |
| 2026-04-25 21:17 | 51.15204 | -0.17775 | 200 ft | 10 kts | 354° |
| 2026-04-25 21:17 | 51.15263 | -0.17694 | 200 ft | 14 kts | 81° |
| 2026-04-25 21:18 | 51.15286 | -0.17521 | 200 ft | 17 kts | 77° |
| 2026-04-25 21:18 | 51.15319 | -0.17378 | 200 ft | 12 kts | 31° |
| 2026-04-25 21:18 | 51.15370 | -0.17262 | 200 ft | 14 kts | 70° |
| 2026-04-25 21:18 | 51.15413 | -0.17103 | 200 ft | 16 kts | 76° |
| 2026-04-25 21:19 | 51.15427 | -0.17001 | 200 ft | 4 kts | 78° |
| 2026-04-25 21:19 | 51.15434 | -0.16946 | 200 ft | 5 kts | 78° |
| 2026-04-25 21:19 | 51.15436 | -0.16933 | 201 ft | 0 kts | 78° |
| 2026-04-25 21:19 | 51.15437 | -0.16925 | 201 ft | 1 kts | 78° |
| 2026-04-25 21:20 | 51.15441 | -0.16892 | 201 ft | 4 kts | 79° |
| 2026-04-25 21:20 | 51.15445 | -0.16863 | 201 ft | 2 kts | 79° |
| 2026-04-25 21:20 | 51.15445 | -0.16856 | 201 ft | 0 kts | 79° |
| 2026-04-25 21:20 | 51.15447 | -0.16850 | 201 ft | 2 kts | 74° |
| 2026-04-25 21:21 | 51.15453 | -0.16787 | 201 ft | 6 kts | 91° |
| 2026-04-25 21:21 | 51.15460 | -0.16717 | 201 ft | 5 kts | 44° |
| 2026-04-25 21:21 | 51.15503 | -0.16718 | 200 ft | 6 kts | 349° |
| 2026-04-25 21:21 | 51.15516 | -0.16723 | 200 ft | 0 kts | 348° |